createdAt,value
2017-12-31T00:00:43.627Z,0
2017-12-31T00:01:43.880Z,0
2017-12-31T00:02:43.865Z,0
2017-12-31T00:03:43.577Z,0
2017-12-31T00:04:43.830Z,0
2017-12-31T00:05:43.549Z,0
2017-12-31T00:06:43.802Z,0
2017-12-31T00:07:43.262Z,0
2017-12-31T00:08:43.231Z,0
2017-12-31T00:09:43.483Z,0
2017-12-31T00:10:43.752Z,0
2017-12-31T00:11:43.724Z,0
2017-12-31T00:12:43.175Z,0
2017-12-31T00:13:43.413Z,0
2017-12-31T00:14:43.724Z,0
2017-12-31T00:15:43.938Z,0
2017-12-31T00:16:43.904Z,0
2017-12-31T00:17:43.355Z,0
2017-12-31T00:18:43.616Z,0
2017-12-31T00:19:43.783Z,0
2017-12-31T00:20:43.575Z,0
2017-12-31T00:21:43.298Z,0
2017-12-31T00:22:43.274Z,0
2017-12-31T00:23:43.785Z,0
2017-12-31T00:24:43.244Z,0
2017-12-31T00:25:43.766Z,0
2017-12-31T00:26:43.211Z,0
2017-12-31T00:27:43.202Z,0
2017-12-31T00:28:43.179Z,0
2017-12-31T00:29:43.691Z,0
2017-12-31T00:30:43.407Z,0
2017-12-31T00:31:42.870Z,0
2017-12-31T00:32:43.111Z,0
2017-12-31T00:33:42.847Z,0
2017-12-31T00:34:43.351Z,0
2017-12-31T00:35:43.075Z,0
2017-12-31T00:36:43.060Z,0
2017-12-31T00:37:43.042Z,0
2017-12-31T00:38:43.288Z,0
2017-12-31T00:39:43.006Z,0
2017-12-31T00:40:43.004Z,0
2017-12-31T00:41:43.496Z,0
2017-12-31T00:42:43.210Z,0
2017-12-31T00:43:43.206Z,0
2017-12-31T00:44:43.199Z,0
2017-12-31T00:45:43.178Z,0
2017-12-31T00:46:43.196Z,0
2017-12-31T00:47:42.615Z,0
2017-12-31T00:48:43.119Z,0
2017-12-31T00:49:43.104Z,0
2017-12-31T00:50:42.826Z,0
2017-12-31T00:51:42.821Z,0
2017-12-31T00:52:43.065Z,0
2017-12-31T00:53:43.314Z,0
2017-12-31T00:54:42.758Z,0
2017-12-31T00:55:43.001Z,0
2017-12-31T00:56:42.986Z,0
2017-12-31T00:57:42.452Z,0
2017-12-31T00:58:42.695Z,0
2017-12-31T00:59:42.419Z,0
2017-12-31T01:00:43.200Z,0
2017-12-31T01:01:42.389Z,0
2017-12-31T01:02:42.904Z,0
2017-12-31T01:03:42.616Z,0
2017-12-31T01:04:42.613Z,0
2017-12-31T01:05:42.851Z,0
2017-12-31T01:06:42.569Z,0
2017-12-31T01:07:42.816Z,0
2017-12-31T01:08:42.533Z,0
2017-12-31T01:09:42.517Z,0
2017-12-31T01:10:42.763Z,0
2017-12-31T01:11:42.477Z,0
2017-12-31T01:12:42.460Z,0
2017-12-31T01:13:42.446Z,0
2017-12-31T01:14:42.169Z,0
2017-12-31T01:15:41.882Z,0
2017-12-31T01:16:42.189Z,0
2017-12-31T01:17:42.381Z,0
2017-12-31T01:18:41.840Z,0
2017-12-31T01:19:42.352Z,0
2017-12-31T01:20:42.849Z,0
2017-12-31T01:21:42.571Z,0
2017-12-31T01:22:42.822Z,0
2017-12-31T01:23:41.753Z,0
2017-12-31T01:24:41.997Z,0
2017-12-31T01:25:42.773Z,0
2017-12-31T01:26:42.499Z,0
2017-12-31T01:27:42.470Z,0
2017-12-31T01:28:41.981Z,0
2017-12-31T01:29:42.710Z,0
2017-12-31T01:30:42.425Z,0
2017-12-31T01:31:41.871Z,0
2017-12-31T01:32:42.136Z,0
2017-12-31T01:33:42.108Z,0
2017-12-31T01:34:42.348Z,0
2017-12-31T01:35:42.073Z,0
2017-12-31T01:36:41.533Z,0
2017-12-31T01:37:42.306Z,0
2017-12-31T01:38:41.494Z,0
2017-12-31T01:39:42.529Z,0
2017-12-31T01:40:42.249Z,0
2017-12-31T01:41:42.236Z,0
2017-12-31T01:42:41.974Z,0
2017-12-31T01:43:42.203Z,0
2017-12-31T01:44:42.185Z,0
2017-12-31T01:45:42.443Z,0
2017-12-31T01:46:41.882Z,0
2017-12-31T01:47:42.408Z,0
2017-12-31T01:48:41.591Z,0
2017-12-31T01:49:42.139Z,0
2017-12-31T01:50:41.557Z,0
2017-12-31T01:51:41.545Z,0
2017-12-31T01:52:41.518Z,0
2017-12-31T01:53:41.496Z,0
2017-12-31T01:54:42.022Z,0
2017-12-31T01:55:41.734Z,0
2017-12-31T01:56:42.251Z,0
2017-12-31T01:57:41.702Z,0
2017-12-31T01:58:42.203Z,0
2017-12-31T01:59:42.196Z,0
2017-12-31T02:00:41.375Z,0
2017-12-31T02:01:41.625Z,0
2017-12-31T02:02:41.606Z,0
2017-12-31T02:03:41.338Z,0
2017-12-31T02:04:42.108Z,0
2017-12-31T02:05:42.084Z,0
2017-12-31T02:06:41.811Z,0
2017-12-31T02:07:41.542Z,0
2017-12-31T02:08:41.553Z,0
2017-12-31T02:09:41.495Z,0
2017-12-31T02:10:41.477Z,0
2017-12-31T02:11:41.718Z,0
2017-12-31T02:12:41.707Z,0
2017-12-31T02:13:41.416Z,0
2017-12-31T02:14:41.929Z,0
2017-12-31T02:15:41.387Z,0
2017-12-31T02:16:41.104Z,0
2017-12-31T02:17:41.356Z,0
2017-12-31T02:18:41.865Z,0
2017-12-31T02:19:42.051Z,0
2017-12-31T02:20:41.567Z,0
2017-12-31T02:21:41.553Z,0
2017-12-31T02:22:41.527Z,0
2017-12-31T02:23:41.244Z,0
2017-12-31T02:24:41.758Z,0
2017-12-31T02:25:41.776Z,0
2017-12-31T02:26:41.207Z,0
2017-12-31T02:27:41.194Z,0
2017-12-31T02:28:41.161Z,0
2017-12-31T02:29:41.666Z,0
2017-12-31T02:30:40.603Z,0
2017-12-31T02:31:41.377Z,0
2017-12-31T02:32:41.094Z,0
2017-12-31T02:33:41.077Z,0
2017-12-31T02:34:41.125Z,0
2017-12-31T02:35:41.044Z,0
2017-12-31T02:36:41.024Z,0
2017-12-31T02:37:41.220Z,0
2017-12-31T02:38:40.986Z,0
2017-12-31T02:39:40.977Z,0
2017-12-31T02:40:41.230Z,0
2017-12-31T02:41:40.942Z,0
2017-12-31T02:42:41.192Z,0
2017-12-31T02:43:41.503Z,0
2017-12-31T02:44:40.629Z,0
2017-12-31T02:45:40.615Z,0
2017-12-31T02:46:41.126Z,0
2017-12-31T02:47:41.107Z,0
2017-12-31T02:48:40.558Z,0
2017-12-31T02:49:40.809Z,0
2017-12-31T02:50:41.079Z,0
2017-12-31T02:51:40.772Z,0
2017-12-31T02:52:40.757Z,0
2017-12-31T02:53:41.011Z,0
2017-12-31T02:54:40.730Z,0
2017-12-31T02:55:40.437Z,0
2017-12-31T02:56:40.158Z,0
2017-12-31T02:57:40.926Z,0
2017-12-31T02:58:40.663Z,0
2017-12-31T02:59:40.637Z,0
2017-12-31T03:00:40.624Z,0
2017-12-31T03:01:40.858Z,0
2017-12-31T03:02:40.585Z,0
2017-12-31T03:03:40.354Z,0
2017-12-31T03:04:40.545Z,0
2017-12-31T03:05:40.541Z,0
2017-12-31T03:06:41.052Z,0
2017-12-31T03:07:40.239Z,0
2017-12-31T03:08:40.474Z,0
2017-12-31T03:09:40.725Z,0
2017-12-31T03:10:40.707Z,0
2017-12-31T03:11:40.696Z,0
2017-12-31T03:12:40.411Z,0
2017-12-31T03:13:40.399Z,0
2017-12-31T03:14:39.897Z,0
2017-12-31T03:15:39.840Z,0
2017-12-31T03:16:40.354Z,0
2017-12-31T03:17:40.057Z,0
2017-12-31T03:18:40.037Z,0
2017-12-31T03:19:40.550Z,0
2017-12-31T03:20:40.273Z,0
2017-12-31T03:21:40.253Z,0
2017-12-31T03:22:40.248Z,0
2017-12-31T03:23:40.752Z,0
2017-12-31T03:24:40.204Z,0
2017-12-31T03:25:40.449Z,0
2017-12-31T03:26:40.437Z,0
2017-12-31T03:27:40.675Z,0
2017-12-31T03:28:40.127Z,0
2017-12-31T03:29:40.116Z,0
2017-12-31T03:30:40.366Z,0
2017-12-31T03:31:40.443Z,0
2017-12-31T03:32:40.063Z,0
2017-12-31T03:33:39.784Z,0
2017-12-31T03:34:40.291Z,0
2017-12-31T03:35:39.951Z,0
2017-12-31T03:36:40.266Z,0
2017-12-31T03:37:39.973Z,0
2017-12-31T03:38:39.960Z,0
2017-12-31T03:39:40.466Z,0
2017-12-31T03:40:40.182Z,0
2017-12-31T03:41:40.433Z,0
2017-12-31T03:42:40.153Z,0
2017-12-31T03:43:39.873Z,0
2017-12-31T03:44:39.852Z,0
2017-12-31T03:45:39.832Z,0
2017-12-31T03:46:39.814Z,0
2017-12-31T03:47:39.796Z,0
2017-12-31T03:48:40.042Z,0
2017-12-31T03:49:40.038Z,0
2017-12-31T03:50:39.742Z,0
2017-12-31T03:51:39.195Z,0
2017-12-31T03:52:39.719Z,0
2017-12-31T03:53:39.692Z,0
2017-12-31T03:54:39.148Z,0
2017-12-31T03:55:39.388Z,0
2017-12-31T03:56:40.166Z,0
2017-12-31T03:57:39.372Z,0
2017-12-31T03:58:39.078Z,0
2017-12-31T03:59:39.582Z,0
2017-12-31T04:00:39.567Z,0
2017-12-31T04:01:39.814Z,0
2017-12-31T04:02:39.791Z,0
2017-12-31T04:03:39.776Z,0
2017-12-31T04:04:39.507Z,0
2017-12-31T04:05:39.738Z,0
2017-12-31T04:06:39.477Z,0
2017-12-31T04:07:39.446Z,0
2017-12-31T04:08:39.687Z,0
2017-12-31T04:09:39.439Z,0
2017-12-31T04:10:39.140Z,0
2017-12-31T04:11:39.386Z,0
2017-12-31T04:12:39.094Z,0
2017-12-31T04:13:39.344Z,0
2017-12-31T04:14:39.340Z,0
2017-12-31T04:15:39.358Z,0
2017-12-31T04:16:39.282Z,0
2017-12-31T04:17:39.008Z,0
2017-12-31T04:18:39.027Z,0
2017-12-31T04:19:39.640Z,0
2017-12-31T04:20:39.677Z,0
2017-12-31T04:21:38.935Z,0
2017-12-31T04:22:39.191Z,0
2017-12-31T04:23:39.160Z,0
2017-12-31T04:24:38.617Z,0
2017-12-31T04:25:39.131Z,0
2017-12-31T04:26:39.376Z,0
2017-12-31T04:27:39.091Z,0
2017-12-31T04:28:39.341Z,0
2017-12-31T04:29:39.058Z,0
2017-12-31T04:30:39.303Z,0
2017-12-31T04:31:39.028Z,0
2017-12-31T04:32:38.747Z,0
2017-12-31T04:33:38.986Z,0
2017-12-31T04:34:38.709Z,0
2017-12-31T04:35:38.956Z,0
2017-12-31T04:36:39.200Z,0
2017-12-31T04:37:39.171Z,0
2017-12-31T04:38:38.912Z,0
2017-12-31T04:39:39.412Z,0
2017-12-31T04:40:39.122Z,0
2017-12-31T04:41:38.839Z,0
2017-12-31T04:42:38.826Z,0
2017-12-31T04:43:38.283Z,0
2017-12-31T04:44:38.786Z,0
2017-12-31T04:45:38.506Z,0
2017-12-31T04:46:39.212Z,0
2017-12-31T04:47:38.739Z,0
2017-12-31T04:48:38.714Z,0
2017-12-31T04:49:38.716Z,0
2017-12-31T04:50:38.676Z,0
2017-12-31T04:51:38.664Z,0
2017-12-31T04:52:38.909Z,0
2017-12-31T04:53:38.626Z,0
2017-12-31T04:54:38.352Z,0
2017-12-31T04:55:38.597Z,0
2017-12-31T04:56:38.904Z,0
2017-12-31T04:57:39.078Z,0
2017-12-31T04:58:38.534Z,0
2017-12-31T04:59:38.783Z,0
2017-12-31T05:00:38.497Z,0
2017-12-31T05:01:38.486Z,0
2017-12-31T05:02:38.207Z,0
2017-12-31T05:03:38.707Z,0
2017-12-31T05:04:38.425Z,0
2017-12-31T05:05:38.671Z,0
2017-12-31T05:06:38.394Z,0
2017-12-31T05:07:38.395Z,0
2017-12-31T05:08:38.619Z,0
2017-12-31T05:09:38.075Z,0
2017-12-31T05:10:38.847Z,0
2017-12-31T05:11:38.626Z,0
2017-12-31T05:12:38.832Z,0
2017-12-31T05:13:38.543Z,0
2017-12-31T05:14:38.268Z,0
2017-12-31T05:15:38.765Z,0
2017-12-31T05:16:38.533Z,0
2017-12-31T05:17:38.197Z,0
2017-12-31T05:18:38.085Z,0
2017-12-31T05:19:38.173Z,0
2017-12-31T05:20:37.885Z,0
2017-12-31T05:21:38.129Z,0
2017-12-31T05:22:38.109Z,0
2017-12-31T05:23:38.095Z,0
2017-12-31T05:24:37.807Z,0
2017-12-31T05:25:38.324Z,0
2017-12-31T05:26:38.307Z,0
2017-12-31T05:27:38.290Z,0
2017-12-31T05:28:38.277Z,0
2017-12-31T05:29:38.513Z,0
2017-12-31T05:30:37.974Z,0
2017-12-31T05:31:37.958Z,0
2017-12-31T05:32:37.939Z,0
2017-12-31T05:33:37.922Z,0
2017-12-31T05:34:38.176Z,0
2017-12-31T05:35:37.359Z,0
2017-12-31T05:36:38.132Z,0
2017-12-31T05:37:38.115Z,0
2017-12-31T05:38:38.109Z,0
2017-12-31T05:39:37.819Z,0
2017-12-31T05:40:38.076Z,0
2017-12-31T05:41:37.788Z,0
2017-12-31T05:42:37.779Z,0
2017-12-31T05:43:37.752Z,0
2017-12-31T05:44:37.723Z,0
2017-12-31T05:45:38.267Z,0
2017-12-31T05:46:37.969Z,0
2017-12-31T05:47:37.944Z,0
2017-12-31T05:48:37.136Z,0
2017-12-31T05:49:38.113Z,0
2017-12-31T05:50:38.157Z,0
2017-12-31T05:51:37.646Z,0
2017-12-31T05:52:37.596Z,0
2017-12-31T05:53:37.573Z,0
2017-12-31T05:54:37.555Z,0
2017-12-31T05:55:37.539Z,0
2017-12-31T05:56:37.525Z,0
2017-12-31T05:57:37.771Z,0
2017-12-31T05:58:37.766Z,0
2017-12-31T05:59:37.606Z,0
2017-12-31T06:00:37.186Z,0
2017-12-31T06:01:38.234Z,0
2017-12-31T06:02:37.696Z,0
2017-12-31T06:03:37.412Z,0
2017-12-31T06:04:37.916Z,0
2017-12-31T06:05:37.409Z,0
2017-12-31T06:06:37.086Z,0
2017-12-31T06:07:37.603Z,0
2017-12-31T06:08:37.064Z,0
2017-12-31T06:09:37.039Z,0
2017-12-31T06:10:37.287Z,0
2017-12-31T06:11:37.540Z,0
2017-12-31T06:12:37.788Z,0
2017-12-31T06:13:37.498Z,0
2017-12-31T06:14:36.952Z,0
2017-12-31T06:15:36.937Z,0
2017-12-31T06:16:37.715Z,0
2017-12-31T06:17:36.643Z,0
2017-12-31T06:18:37.159Z,0
2017-12-31T06:19:37.125Z,0
2017-12-31T06:20:37.115Z,0
2017-12-31T06:21:37.113Z,0
2017-12-31T06:22:37.434Z,0
2017-12-31T06:23:37.369Z,0
2017-12-31T06:24:37.315Z,0
2017-12-31T06:25:37.300Z,0
2017-12-31T06:26:36.752Z,0
2017-12-31T06:27:37.533Z,0
2017-12-31T06:28:36.981Z,0
2017-12-31T06:29:37.231Z,0
2017-12-31T06:30:36.688Z,0
2017-12-31T06:31:36.937Z,0
2017-12-31T06:32:36.655Z,0
2017-12-31T06:33:36.907Z,0
2017-12-31T06:34:36.879Z,0
2017-12-31T06:35:37.125Z,0
2017-12-31T06:36:36.581Z,0
2017-12-31T06:37:36.304Z,0
2017-12-31T06:38:36.815Z,0
2017-12-31T06:39:37.329Z,0
2017-12-31T06:40:36.512Z,0
2017-12-31T06:41:36.767Z,0
2017-12-31T06:42:36.754Z,0
2017-12-31T06:43:36.729Z,0
2017-12-31T06:44:36.707Z,0
2017-12-31T06:45:36.965Z,0
2017-12-31T06:46:36.424Z,0
2017-12-31T06:47:36.679Z,0
2017-12-31T06:48:36.908Z,0
2017-12-31T06:49:36.626Z,0
2017-12-31T06:50:37.132Z,0
2017-12-31T06:51:36.330Z,0
2017-12-31T06:52:37.096Z,0
2017-12-31T06:53:36.558Z,0
2017-12-31T06:54:36.277Z,0
2017-12-31T06:55:36.530Z,0
2017-12-31T06:56:36.506Z,0
2017-12-31T06:57:36.498Z,0
2017-12-31T06:58:36.483Z,0
2017-12-31T06:59:36.463Z,0
2017-12-31T07:00:36.181Z,0
2017-12-31T07:01:36.946Z,0
2017-12-31T07:02:36.673Z,0
2017-12-31T07:03:36.398Z,0
2017-12-31T07:04:36.898Z,0
2017-12-31T07:05:36.353Z,0
2017-12-31T07:06:36.338Z,0
2017-12-31T07:07:36.322Z,0
2017-12-31T07:08:36.568Z,0
2017-12-31T07:09:36.025Z,0
2017-12-31T07:10:36.279Z,0
2017-12-31T07:11:36.035Z,0
2017-12-31T07:12:36.500Z,0
2017-12-31T07:13:36.213Z,0
2017-12-31T07:14:36.202Z,0
2017-12-31T07:15:36.715Z,0
2017-12-31T07:16:36.169Z,0
2017-12-31T07:17:36.150Z,0
2017-12-31T07:18:35.865Z,0
2017-12-31T07:19:35.593Z,0
2017-12-31T07:20:36.639Z,0
2017-12-31T07:21:36.091Z,0
2017-12-31T07:22:36.344Z,0
2017-12-31T07:23:36.315Z,0
2017-12-31T07:24:35.768Z,0
2017-12-31T07:25:36.285Z,0
2017-12-31T07:26:35.999Z,0
2017-12-31T07:27:36.522Z,0
2017-12-31T07:28:35.967Z,0
2017-12-31T07:29:36.220Z,0
2017-12-31T07:30:36.195Z,0
2017-12-31T07:31:36.439Z,0
2017-12-31T07:32:36.160Z,0
2017-12-31T07:33:35.901Z,0
2017-12-31T07:34:36.198Z,0
2017-12-31T07:35:35.842Z,0
2017-12-31T07:36:35.835Z,0
2017-12-31T07:37:36.350Z,0
2017-12-31T07:38:35.800Z,0
2017-12-31T07:39:35.515Z,0
2017-12-31T07:40:36.036Z,0
2017-12-31T07:41:36.269Z,0
2017-12-31T07:42:35.723Z,0
2017-12-31T07:43:35.721Z,0
2017-12-31T07:44:35.689Z,0
2017-12-31T07:45:35.935Z,0
2017-12-31T07:46:35.652Z,0
2017-12-31T07:47:35.648Z,0
2017-12-31T07:48:35.354Z,0
2017-12-31T07:49:35.872Z,0
2017-12-31T07:50:35.852Z,0
2017-12-31T07:51:36.107Z,0
2017-12-31T07:52:35.561Z,0
2017-12-31T07:53:36.066Z,0
2017-12-31T07:54:35.262Z,0
2017-12-31T07:55:35.765Z,0
2017-12-31T07:56:35.229Z,5
2017-12-31T07:57:35.996Z,5
2017-12-31T07:58:35.716Z,5
2017-12-31T07:59:35.173Z,5
2017-12-31T08:00:35.420Z,5
2017-12-31T08:01:35.416Z,10
2017-12-31T08:02:35.390Z,10
2017-12-31T08:03:35.116Z,10
2017-12-31T08:04:34.838Z,10
2017-12-31T08:05:35.341Z,10
2017-12-31T08:06:35.592Z,10
2017-12-31T08:07:35.579Z,10
2017-12-31T08:08:35.826Z,10
2017-12-31T08:09:35.013Z,10
2017-12-31T08:10:35.256Z,10
2017-12-31T08:11:34.974Z,10
2017-12-31T08:12:35.226Z,10
2017-12-31T08:13:35.738Z,10
2017-12-31T08:14:35.186Z,10
2017-12-31T08:15:35.693Z,10
2017-12-31T08:16:35.426Z,10
2017-12-31T08:17:34.875Z,10
2017-12-31T08:18:34.865Z,10
2017-12-31T08:19:35.373Z,10
2017-12-31T08:20:35.295Z,20
2017-12-31T08:21:34.819Z,20
2017-12-31T08:22:35.059Z,20
2017-12-31T08:23:34.509Z,10
2017-12-31T08:24:34.492Z,10
2017-12-31T08:25:35.270Z,15
2017-12-31T08:26:34.468Z,15
2017-12-31T08:27:34.444Z,20
2017-12-31T08:28:35.480Z,20
2017-12-31T08:29:34.942Z,20
2017-12-31T08:30:34.387Z,20
2017-12-31T08:31:35.180Z,25
2017-12-31T08:32:35.162Z,25
2017-12-31T08:33:35.130Z,20
2017-12-31T08:34:34.851Z,15
2017-12-31T08:35:35.098Z,15
2017-12-31T08:36:35.357Z,15
2017-12-31T08:37:34.539Z,20
2017-12-31T08:38:35.324Z,20
2017-12-31T08:39:34.509Z,20
2017-12-31T08:40:34.757Z,20
2017-12-31T08:41:35.004Z,25
2017-12-31T08:42:34.719Z,25
2017-12-31T08:43:34.443Z,35
2017-12-31T08:44:34.437Z,40
2017-12-31T08:45:34.944Z,40
2017-12-31T08:46:34.655Z,40
2017-12-31T08:47:34.918Z,40
2017-12-31T08:48:34.891Z,35
2017-12-31T08:49:34.872Z,40
2017-12-31T08:50:34.332Z,40
2017-12-31T08:51:34.312Z,35
2017-12-31T08:52:34.548Z,35
2017-12-31T08:53:34.320Z,45
2017-12-31T08:54:35.051Z,40
2017-12-31T08:55:34.507Z,35
2017-12-31T08:56:34.236Z,40
2017-12-31T08:57:34.999Z,50
2017-12-31T08:58:34.720Z,50
2017-12-31T08:59:34.441Z,45
2017-12-31T09:00:34.695Z,45
2017-12-31T09:01:34.666Z,40
2017-12-31T09:02:34.398Z,40
2017-12-31T09:03:34.635Z,40
2017-12-31T09:04:34.621Z,45
2017-12-31T09:05:34.081Z,50
2017-12-31T09:06:34.591Z,55
2017-12-31T09:07:34.569Z,45
2017-12-31T09:08:34.296Z,35
2017-12-31T09:09:34.275Z,35
2017-12-31T09:10:34.535Z,45
2017-12-31T09:11:34.251Z,45
2017-12-31T09:12:34.495Z,40
2017-12-31T09:13:34.747Z,40
2017-12-31T09:14:34.205Z,40
2017-12-31T09:15:34.468Z,35
2017-12-31T09:16:34.166Z,35
2017-12-31T09:17:33.898Z,30
2017-12-31T09:18:34.669Z,30
2017-12-31T09:19:33.590Z,35
2017-12-31T09:20:34.370Z,40
2017-12-31T09:21:34.353Z,35
2017-12-31T09:22:34.071Z,35
2017-12-31T09:23:34.328Z,40
2017-12-31T09:24:34.035Z,35
2017-12-31T09:25:34.043Z,35
2017-12-31T09:26:34.009Z,35
2017-12-31T09:27:34.242Z,30
2017-12-31T09:28:33.994Z,30
2017-12-31T09:29:34.246Z,25
2017-12-31T09:30:33.951Z,30
2017-12-31T09:31:34.195Z,30
2017-12-31T09:32:33.640Z,30
2017-12-31T09:33:33.635Z,25
2017-12-31T09:34:34.137Z,25
2017-12-31T09:35:33.607Z,25
2017-12-31T09:36:33.846Z,20
2017-12-31T09:37:34.086Z,20
2017-12-31T09:38:33.821Z,15
2017-12-31T09:39:34.104Z,20
2017-12-31T09:40:33.798Z,20
2017-12-31T09:41:33.769Z,25
2017-12-31T09:42:34.028Z,25
2017-12-31T09:43:33.991Z,20
2017-12-31T09:44:34.008Z,20
2017-12-31T09:45:33.709Z,15
2017-12-31T09:46:33.426Z,15
2017-12-31T09:47:33.725Z,15
2017-12-31T09:48:33.664Z,25
2017-12-31T09:49:33.956Z,20
2017-12-31T09:50:33.967Z,20
2017-12-31T09:51:33.605Z,20
2017-12-31T09:52:33.583Z,20
2017-12-31T09:53:33.574Z,20
2017-12-31T09:54:33.826Z,15
2017-12-31T09:55:33.601Z,15
2017-12-31T09:56:33.273Z,15
2017-12-31T09:57:33.795Z,15
2017-12-31T09:58:33.232Z,15
2017-12-31T09:59:33.493Z,15
2017-12-31T10:00:33.731Z,15
2017-12-31T10:01:33.760Z,15
2017-12-31T10:02:32.899Z,10
2017-12-31T10:03:33.414Z,15
2017-12-31T10:04:33.137Z,15
2017-12-31T10:05:33.646Z,15
2017-12-31T10:06:33.377Z,20
2017-12-31T10:07:33.357Z,25
2017-12-31T10:08:33.626Z,25
2017-12-31T10:09:33.538Z,20
2017-12-31T10:10:33.312Z,20
2017-12-31T10:11:33.578Z,20
2017-12-31T10:12:33.526Z,15
2017-12-31T10:13:33.258Z,15
2017-12-31T10:14:33.792Z,15
2017-12-31T10:15:33.241Z,20
2017-12-31T10:16:32.948Z,20
2017-12-31T10:17:33.199Z,25
2017-12-31T10:18:33.179Z,25
2017-12-31T10:19:33.440Z,25
2017-12-31T10:20:33.365Z,25
2017-12-31T10:21:33.394Z,25
2017-12-31T10:22:33.131Z,30
2017-12-31T10:23:32.851Z,30
2017-12-31T10:24:33.347Z,20
2017-12-31T10:25:33.072Z,15
2017-12-31T10:26:33.055Z,15
2017-12-31T10:27:32.786Z,20
2017-12-31T10:28:33.291Z,20
2017-12-31T10:29:32.742Z,20
2017-12-31T10:30:32.744Z,25
2017-12-31T10:31:32.984Z,30
2017-12-31T10:32:32.713Z,35
2017-12-31T10:33:33.477Z,40
2017-12-31T10:34:33.192Z,40
2017-12-31T10:35:32.665Z,40
2017-12-31T10:36:32.911Z,40
2017-12-31T10:37:32.951Z,50
2017-12-31T10:38:32.884Z,55
2017-12-31T10:39:47.763Z,45
2017-12-31T10:40:33.141Z,40
2017-12-31T10:41:32.901Z,30
2017-12-31T10:42:32.818Z,30
2017-12-31T10:43:33.058Z,30
2017-12-31T10:44:32.251Z,30
2017-12-31T10:45:33.043Z,50
2017-12-31T10:46:32.752Z,50
2017-12-31T10:47:32.733Z,50
2017-12-31T10:48:32.976Z,40
2017-12-31T10:49:32.968Z,40
2017-12-31T10:50:32.685Z,45
2017-12-31T10:51:32.932Z,55
2017-12-31T10:52:32.394Z,60
2017-12-31T10:53:32.918Z,45
2017-12-31T10:54:32.943Z,40
2017-12-31T10:55:32.611Z,45
2017-12-31T10:56:32.877Z,50
2017-12-31T10:57:32.054Z,40
2017-12-31T10:58:32.569Z,35
2017-12-31T10:59:32.548Z,45
2017-12-31T11:00:32.801Z,50
2017-12-31T11:01:32.785Z,50
2017-12-31T11:02:32.501Z,50
2017-12-31T11:03:32.226Z,65
2017-12-31T11:04:33.001Z,60
2017-12-31T11:05:32.984Z,70
2017-12-31T11:06:32.438Z,70
2017-12-31T11:07:32.428Z,55
2017-12-31T11:08:32.159Z,45
2017-12-31T11:09:32.943Z,30
2017-12-31T11:10:32.439Z,25
2017-12-31T11:11:31.840Z,25
2017-12-31T11:12:32.395Z,40
2017-12-31T11:13:32.076Z,50
2017-12-31T11:14:32.597Z,55
2017-12-31T11:15:32.573Z,35
2017-12-31T11:16:32.341Z,40
2017-12-31T11:17:32.296Z,45
2017-12-31T11:18:32.462Z,40
2017-12-31T11:19:32.255Z,40
2017-12-31T11:20:32.501Z,50
2017-12-31T11:21:32.221Z,45
2017-12-31T11:22:31.953Z,35
2017-12-31T11:23:32.195Z,45
2017-12-31T11:24:31.924Z,50
2017-12-31T11:25:32.165Z,35
2017-12-31T11:26:32.526Z,35
2017-12-31T11:27:32.134Z,45
2017-12-31T11:28:31.858Z,50
2017-12-31T11:29:32.113Z,40
2017-12-31T11:30:32.094Z,40
2017-12-31T11:31:32.341Z,45
2017-12-31T11:32:32.059Z,50
2017-12-31T11:33:32.317Z,40
2017-12-31T11:34:32.025Z,30
2017-12-31T11:35:31.759Z,25
2017-12-31T11:36:31.995Z,40
2017-12-31T11:37:32.249Z,45
2017-12-31T11:38:31.705Z,35
2017-12-31T11:39:31.957Z,40
2017-12-31T11:40:31.671Z,50
2017-12-31T11:41:32.196Z,50
2017-12-31T11:42:31.377Z,40
2017-12-31T11:43:31.896Z,30
2017-12-31T11:44:32.152Z,40
2017-12-31T11:45:32.142Z,55
2017-12-31T11:46:31.848Z,75
2017-12-31T11:47:31.839Z,115
2017-12-31T11:48:32.123Z,165
2017-12-31T11:49:32.819Z,175
2017-12-31T11:50:31.527Z,155
2017-12-31T11:51:31.514Z,150
2017-12-31T11:52:32.031Z,155
2017-12-31T11:53:31.486Z,140
2017-12-31T11:54:31.204Z,135
2017-12-31T11:55:31.468Z,110
2017-12-31T11:56:31.443Z,90
2017-12-31T11:57:32.222Z,105
2017-12-31T11:58:31.148Z,100
2017-12-31T11:59:32.358Z,55
2017-12-31T12:00:31.908Z,50
2017-12-31T12:01:31.637Z,55
2017-12-31T12:02:31.454Z,50
2017-12-31T12:03:31.344Z,40
2017-12-31T12:04:31.905Z,45
2017-12-31T12:05:31.316Z,50
2017-12-31T12:06:31.562Z,55
2017-12-31T12:07:31.560Z,55
2017-12-31T12:08:31.011Z,75
2017-12-31T12:09:31.470Z,120
2017-12-31T12:10:31.507Z,155
2017-12-31T12:11:32.041Z,185
2017-12-31T12:12:31.209Z,160
2017-12-31T12:13:31.199Z,165
2017-12-31T12:14:31.712Z,190
2017-12-31T12:15:31.804Z,170
2017-12-31T12:16:31.694Z,195
2017-12-31T12:17:31.667Z,200
2017-12-31T12:18:31.686Z,210
2017-12-31T12:19:31.383Z,225
2017-12-31T12:20:31.129Z,230
2017-12-31T12:21:31.559Z,150
2017-12-31T12:22:30.809Z,150
2017-12-31T12:23:31.578Z,170
2017-12-31T12:24:31.313Z,120
2017-12-31T12:25:31.178Z,140
2017-12-31T12:26:31.277Z,165
2017-12-31T12:27:30.945Z,210
2017-12-31T12:28:31.518Z,230
2017-12-31T12:29:30.983Z,255
2017-12-31T12:30:31.506Z,290
2017-12-31T12:31:31.212Z,295
2017-12-31T12:32:31.213Z,320
2017-12-31T12:33:31.510Z,350
2017-12-31T12:34:30.657Z,360
2017-12-31T12:35:31.166Z,310
2017-12-31T12:36:30.889Z,335
2017-12-31T12:37:31.406Z,345
2017-12-31T12:38:30.866Z,155
2017-12-31T12:39:31.393Z,135
2017-12-31T12:40:31.367Z,120
2017-12-31T12:41:31.106Z,145
2017-12-31T12:42:30.558Z,110
2017-12-31T12:43:31.120Z,80
2017-12-31T12:44:31.591Z,65
2017-12-31T12:45:31.307Z,70
2017-12-31T12:46:31.307Z,85
2017-12-31T12:47:30.771Z,85
2017-12-31T12:48:31.012Z,95
2017-12-31T12:49:30.730Z,80
2017-12-31T12:50:31.256Z,65
2017-12-31T12:51:30.981Z,60
2017-12-31T12:52:31.241Z,50
2017-12-31T12:53:31.309Z,60
2017-12-31T12:54:30.407Z,55
2017-12-31T12:55:31.251Z,50
2017-12-31T12:56:31.176Z,35
2017-12-31T12:57:30.376Z,35
2017-12-31T12:58:30.884Z,40
2017-12-31T12:59:30.873Z,65
2017-12-31T13:00:30.877Z,85
2017-12-31T13:01:31.373Z,75
2017-12-31T13:02:31.099Z,65
2017-12-31T13:03:31.081Z,65
2017-12-31T13:04:30.807Z,65
2017-12-31T13:05:30.837Z,70
2017-12-31T13:06:30.828Z,75
2017-12-31T13:07:30.764Z,75
2017-12-31T13:08:31.015Z,75
2017-12-31T13:09:30.742Z,65
2017-12-31T13:10:30.987Z,60
2017-12-31T13:11:30.445Z,55
2017-12-31T13:12:30.697Z,55
2017-12-31T13:13:30.682Z,55
2017-12-31T13:14:31.192Z,50
2017-12-31T13:15:30.661Z,45
2017-12-31T13:16:30.914Z,45
2017-12-31T13:17:31.163Z,50
2017-12-31T13:18:30.612Z,50
2017-12-31T13:19:30.611Z,50
2017-12-31T13:20:30.848Z,40
2017-12-31T13:21:30.308Z,35
2017-12-31T13:22:30.817Z,35
2017-12-31T13:23:30.025Z,40
2017-12-31T13:24:30.791Z,35
2017-12-31T13:25:30.526Z,40
2017-12-31T13:26:30.507Z,45
2017-12-31T13:27:30.485Z,40
2017-12-31T13:28:30.466Z,35
2017-12-31T13:29:30.471Z,30
2017-12-31T13:30:30.455Z,30
2017-12-31T13:31:30.693Z,35
2017-12-31T13:32:30.161Z,30
2017-12-31T13:33:30.149Z,25
2017-12-31T13:34:30.394Z,25
2017-12-31T13:35:30.401Z,20
2017-12-31T13:36:30.107Z,20
2017-12-31T13:37:30.345Z,20
2017-12-31T13:38:30.596Z,20
2017-12-31T13:39:30.326Z,20
2017-12-31T13:40:30.830Z,20
2017-12-31T13:41:30.298Z,15
2017-12-31T13:42:30.542Z,15
2017-12-31T13:43:29.997Z,15
2017-12-31T13:44:29.991Z,10
2017-12-31T13:45:30.766Z,10
2017-12-31T13:46:30.240Z,10
2017-12-31T13:47:30.208Z,10
2017-12-31T13:48:30.452Z,10
2017-12-31T13:49:30.193Z,20
2017-12-31T13:50:29.917Z,40
2017-12-31T13:51:30.420Z,40
2017-12-31T13:52:30.404Z,45
2017-12-31T13:53:29.904Z,35
2017-12-31T13:54:30.102Z,40
2017-12-31T13:55:30.622Z,35
2017-12-31T13:56:30.604Z,30
2017-12-31T13:57:30.329Z,30
2017-12-31T13:58:30.049Z,25
2017-12-31T13:59:30.303Z,15
2017-12-31T14:00:30.281Z,20
2017-12-31T14:01:30.266Z,25
2017-12-31T14:02:29.994Z,30
2017-12-31T14:03:29.458Z,35
2017-12-31T14:04:29.965Z,40
2017-12-31T14:05:30.481Z,30
2017-12-31T14:06:30.202Z,25
2017-12-31T14:07:30.000Z,20
2017-12-31T14:08:30.230Z,20
2017-12-31T14:09:29.633Z,20
2017-12-31T14:10:29.890Z,20
2017-12-31T14:11:29.862Z,15
2017-12-31T14:12:30.105Z,15
2017-12-31T14:13:29.836Z,15
2017-12-31T14:14:29.300Z,15
2017-12-31T14:15:30.328Z,15
2017-12-31T14:16:29.792Z,15
2017-12-31T14:17:30.306Z,15
2017-12-31T14:18:29.777Z,15
2017-12-31T14:19:30.283Z,15
2017-12-31T14:20:30.464Z,15
2017-12-31T14:21:29.978Z,15
2017-12-31T14:22:29.705Z,15
2017-12-31T14:23:29.954Z,15
2017-12-31T14:24:29.944Z,10
2017-12-31T14:25:29.399Z,10
2017-12-31T14:26:29.650Z,10
2017-12-31T14:27:29.895Z,5
2017-12-31T14:28:29.883Z,5
2017-12-31T14:29:29.659Z,5
2017-12-31T14:30:29.641Z,5
2017-12-31T14:31:29.574Z,5